Time;durP1;ratioP1;P1;durP2;ratioP2;P2;SDS_P1;SDS_P2;PMS_P1;PMS_P2;Temp;Humidity;BMP_temperature;BMP_pressure;BME280_temperature;BME280_humidity;BME280_pressure;Samples;Min_cycle;Max_cycle;Signal;HPM_P1;HPM_P2
2021/03/17 00:01:11;;;;;;;23.48;13.20;;;23.70;45.10;;;;;;5072812;28;20185;-39
2021/03/17 00:03:38;;;;;;;22.70;12.98;;;23.70;45.10;;;;;;5070091;28;20045;-39
2021/03/17 00:06:05;;;;;;;23.00;12.77;;;23.70;45.10;;;;;;5071434;28;20091;-39
2021/03/17 00:08:32;;;;;;;22.40;13.68;;;23.70;45.10;;;;;;5071749;28;20044;-38
2021/03/17 00:10:58;;;;;;;20.45;13.38;;;23.70;45.10;;;;;;5073004;28;20067;-39
2021/03/17 00:13:29;;;;;;;23.80;14.05;;;23.70;45.10;;;;;;5070053;28;20051;-38
2021/03/17 00:16:00;;;;;;;21.90;13.55;;;23.70;45.10;;;;;;5071433;28;20475;-39
2021/03/17 00:18:28;;;;;;;20.70;13.13;;;23.70;45.10;;;;;;5071267;28;20411;-38
2021/03/17 00:20:54;;;;;;;18.88;12.63;;;23.70;45.10;;;;;;5071735;28;20044;-39
2021/03/17 00:23:21;;;;;;;22.95;13.25;;;23.70;45.10;;;;;;5070392;28;20067;-39
2021/03/17 00:25:48;;;;;;;22.00;13.70;;;23.70;45.10;;;;;;5070250;28;20041;-38
2021/03/17 00:28:15;;;;;;;22.90;13.45;;;23.70;45.10;;;;;;5069801;28;20068;-38
2021/03/17 00:30:42;;;;;;;21.25;13.13;;;23.70;45.00;;;;;;5070986;28;20570;-38
2021/03/17 00:33:14;;;;;;;25.52;14.05;;;23.70;45.10;;;;;;5069953;28;20056;-38
2021/03/17 00:35:41;;;;;;;24.77;13.50;;;23.70;45.00;;;;;;5070241;28;20075;-38
2021/03/17 00:38:09;;;;;;;23.63;13.30;;;23.70;45.00;;;;;;5070181;28;20071;-38
2021/03/17 00:40:37;;;;;;;24.30;14.27;;;23.60;45.00;;;;;;5069889;28;20106;-38
2021/03/17 00:43:04;;;;;;;22.05;12.88;;;23.60;45.00;;;;;;5070421;28;20387;-38
2021/03/17 00:45:31;;;;;;;21.05;12.85;;;23.60;45.00;;;;;;5071256;28;20057;-38
2021/03/17 00:47:58;;;;;;;23.02;13.02;;;23.60;45.00;;;;;;5070613;28;20067;-38
2021/03/17 00:50:24;;;;;;;21.63;13.10;;;23.60;44.90;;;;;;5072311;28;20053;-38
2021/03/17 00:52:54;;;;;;;21.80;13.10;;;23.60;45.00;;;;;;5072982;28;20048;-38
2021/03/17 00:55:22;;;;;;;20.17;12.70;;;23.60;45.00;;;;;;5073801;28;20052;-38
2021/03/17 00:57:49;;;;;;;21.08;12.68;;;23.60;44.90;;;;;;5073198;28;20076;-39
2021/03/17 01:00:17;;;;;;;22.58;12.23;;;23.60;44.90;;;;;;5073194;28;20454;-39
2021/03/17 01:02:44;;;;;;;22.45;13.20;;;23.60;44.90;;;;;;5074053;28;20101;-38
2021/03/17 01:05:12;;;;;;;22.77;12.43;;;23.60;44.90;;;;;;5074705;28;20040;-38
2021/03/17 01:07:38;;;;;;;22.73;12.88;;;23.60;44.90;;;;;;5073393;28;20419;-38
2021/03/17 01:10:19;;;;;;;20.63;12.38;;;23.60;44.90;;;;;;5073211;28;20040;-39
2021/03/17 01:12:46;;;;;;;20.58;12.60;;;23.60;44.90;;;;;;5073190;28;20408;-38
2021/03/17 01:15:17;;;;;;;21.42;12.45;;;23.60;44.90;;;;;;5072624;28;20048;-39
2021/03/17 01:17:44;;;;;;;22.25;13.07;;;23.60;44.90;;;;;;5074444;28;20056;-39
2021/03/17 01:20:12;;;;;;;25.45;13.65;;;23.60;44.90;;;;;;5074467;28;20056;-38
2021/03/17 01:22:40;;;;;;;18.20;11.85;;;23.60;44.90;;;;;;5071690;28;20048;-39
2021/03/17 01:25:10;;;;;;;19.85;12.48;;;23.60;44.90;;;;;;5074065;28;20049;-38
2021/03/17 01:27:37;;;;;;;20.02;13.00;;;23.60;44.90;;;;;;5073501;28;20499;-39
2021/03/17 01:30:06;;;;;;;23.15;13.43;;;23.60;44.90;;;;;;5075119;28;20044;-39
2021/03/17 01:32:34;;;;;;;18.40;12.23;;;23.60;44.90;;;;;;5071135;28;20047;-39
2021/03/17 01:35:03;;;;;;;20.42;12.52;;;23.60;44.90;;;;;;5072684;28;20049;-38
2021/03/17 01:37:30;;;;;;;21.15;12.88;;;23.60;44.90;;;;;;5072665;28;20045;-38
2021/03/17 01:39:56;;;;;;;18.95;12.00;;;23.60;44.90;;;;;;5072586;28;20052;-39
2021/03/17 01:42:23;;;;;;;20.20;12.10;;;23.60;44.90;;;;;;5075286;28;20487;-38
2021/03/17 01:45:13;;;;;;;21.00;12.85;;;23.60;44.80;;;;;;5073168;28;20063;-38
2021/03/17 01:47:41;;;;;;;17.55;11.75;;;23.60;44.80;;;;;;5072957;28;20098;-38
2021/03/17 01:50:19;;;;;;;19.95;12.10;;;23.50;44.70;;;;;;5073595;28;20045;-38
2021/03/17 01:52:46;;;;;;;18.13;11.45;;;23.50;44.80;;;;;;5072734;28;20487;-38
2021/03/17 01:55:15;;;;;;;19.77;11.75;;;23.60;44.80;;;;;;5072584;28;20049;-39
2021/03/17 01:57:42;;;;;;;20.33;12.18;;;23.60;44.80;;;;;;5072472;28;20518;-38
2021/03/17 02:00:11;;;;;;;19.15;12.25;;;23.60;44.90;;;;;;5071962;28;20049;-39
2021/03/17 02:02:46;;;;;;;20.10;12.30;;;23.60;44.80;;;;;;5071599;28;20095;-40
2021/03/17 02:05:15;;;;;;;21.33;12.45;;;23.50;44.70;;;;;;5074524;28;20072;-38
2021/03/17 02:07:43;;;;;;;20.77;12.05;;;23.50;44.70;;;;;;5074473;28;20127;-39
2021/03/17 02:10:13;;;;;;;18.80;11.52;;;23.60;44.80;;;;;;5072839;28;20048;-38
2021/03/17 02:13:10;;;;;;;17.98;11.40;;;23.50;44.70;;;;;;5074436;28;20051;-38
2021/03/17 02:15:47;;;;;;;19.08;11.48;;;23.60;44.80;;;;;;5072062;28;20044;-38
2021/03/17 02:18:40;;;;;;;18.75;11.77;;;23.60;44.80;;;;;;5073114;28;20070;-38
2021/03/17 02:21:43;;;;;;;21.35;12.80;;;23.50;44.70;;;;;;5072898;28;20493;-39
2021/03/17 02:24:20;;;;;;;19.92;12.35;;;23.50;44.70;;;;;;5074096;28;20041;-38
2021/03/17 02:27:20;;;;;;;19.88;12.48;;;23.50;44.70;;;;;;5071458;28;20056;-39
2021/03/17 02:30:00;;;;;;;16.63;11.63;;;23.50;44.70;;;;;;5071614;28;20048;-38
2021/03/17 02:32:33;;;;;;;18.27;11.50;;;23.50;44.70;;;;;;5072000;28;20408;-38
2021/03/17 02:35:04;;;;;;;18.43;12.20;;;23.50;44.70;;;;;;5072034;28;20393;-39
2021/03/17 02:37:32;;;;;;;16.83;10.68;;;23.50;44.70;;;;;;5074051;28;20124;-39
2021/03/17 02:40:26;;;;;;;18.23;11.35;;;23.50;44.70;;;;;;5074088;28;20052;-39
2021/03/17 02:43:11;;;;;;;18.33;11.55;;;23.50;44.70;;;;;;5070965;28;20051;-38
2021/03/17 02:45:55;;;;;;;18.23;11.00;;;23.50;44.70;;;;;;5072801;28;20045;-38
2021/03/17 02:48:36;;;;;;;18.20;11.88;;;23.50;44.70;;;;;;5071662;28;20044;-38
2021/03/17 02:51:08;;;;;;;17.85;11.82;;;23.50;44.70;;;;;;5072414;28;20488;-38
2021/03/17 02:53:37;;;;;;;17.90;11.30;;;23.50;44.70;;;;;;5071903;28;20052;-38
2021/03/17 02:56:10;;;;;;;18.83;11.35;;;23.50;44.70;;;;;;5071032;28;20067;-39
2021/03/17 02:58:41;;;;;;;17.47;10.93;;;23.50;44.70;;;;;;5069715;28;20529;-38
2021/03/17 03:01:11;;;;;;;17.50;11.23;;;23.50;44.70;;;;;;5071056;28;20310;-39
2021/03/17 03:03:39;;;;;;;17.27;10.75;;;23.50;44.70;;;;;;5073184;28;20500;-38
2021/03/17 03:06:07;;;;;;;19.10;11.55;;;23.50;44.70;;;;;;5070768;28;20062;-39
2021/03/17 03:08:37;;;;;;;21.45;12.55;;;23.50;44.60;;;;;;5073308;28;20212;-39
2021/03/17 03:11:06;;;;;;;19.15;11.43;;;23.50;44.70;;;;;;5071405;28;20484;-38
2021/03/17 03:13:35;;;;;;;18.80;11.65;;;23.50;44.70;;;;;;5071043;28;20048;-38
2021/03/17 03:16:13;;;;;;;17.33;11.02;;;23.50;44.60;;;;;;5073560;28;20049;-38
2021/03/17 03:18:44;;;;;;;20.73;11.65;;;23.50;44.60;;;;;;5070506;28;20047;-38
2021/03/17 03:21:11;;;;;;;16.25;10.65;;;23.50;44.60;;;;;;5071654;28;20064;-38
2021/03/17 03:23:40;;;;;;;16.20;10.27;;;23.50;44.60;;;;;;5073086;28;20090;-38
2021/03/17 03:26:08;;;;;;;16.52;10.77;;;23.50;44.60;;;;;;5073484;28;20045;-38
2021/03/17 03:28:36;;;;;;;14.63;9.73;;;23.50;44.60;;;;;;5072866;28;20063;-38
2021/03/17 03:31:03;;;;;;;17.67;10.55;;;23.50;44.60;;;;;;5068386;28;20048;-38
2021/03/17 03:33:30;;;;;;;15.63;9.95;;;23.40;44.50;;;;;;5072052;28;20484;-38
2021/03/17 03:35:57;;;;;;;17.50;10.60;;;23.50;44.60;;;;;;5072022;28;20047;-38
2021/03/17 03:38:25;;;;;;;16.42;10.80;;;23.50;44.60;;;;;;5071557;28;20064;-38
2021/03/17 03:40:52;;;;;;;14.52;10.10;;;23.50;44.60;;;;;;5071908;28;20048;-38
2021/03/17 03:43:19;;;;;;;18.50;10.90;;;23.50;44.60;;;;;;5085116;28;20077;-38
2021/03/17 03:45:46;;;;;;;17.63;10.65;;;23.40;44.50;;;;;;5070638;28;20045;-38
2021/03/17 03:48:14;;;;;;;15.18;10.57;;;23.50;44.60;;;;;;5071785;28;20159;-38
2021/03/17 03:50:47;;;;;;;18.02;10.93;;;23.50;44.50;;;;;;5070279;28;20500;-38
2021/03/17 03:53:19;;;;;;;17.00;10.20;;;23.50;44.50;;;;;;5071451;28;20118;-38
2021/03/17 03:55:49;;;;;;;16.30;10.25;;;23.40;44.50;;;;;;5070279;28;20045;-38
2021/03/17 03:58:25;;;;;;;18.25;11.15;;;23.40;44.50;;;;;;5070552;28;20053;-38
2021/03/17 04:00:56;;;;;;;15.95;10.52;;;23.50;44.50;;;;;;5070254;28;20044;-38
2021/03/17 04:03:24;;;;;;;15.63;10.35;;;23.50;44.50;;;;;;5082780;28;20102;-38
2021/03/17 04:05:53;;;;;;;16.85;10.23;;;23.50;44.50;;;;;;5071123;28;20128;-38
2021/03/17 04:08:25;;;;;;;18.77;10.60;;;23.40;44.40;;;;;;5070456;28;20048;-38
2021/03/17 04:10:56;;;;;;;15.50;10.18;;;23.40;44.50;;;;;;5070405;28;20052;-39
2021/03/17 04:13:25;;;;;;;19.80;10.95;;;23.40;44.50;;;;;;5071993;28;20057;-39
2021/03/17 04:15:57;;;;;;;16.70;10.25;;;23.40;44.50;;;;;;5070690;28;20152;-38
2021/03/17 04:18:32;;;;;;;16.55;10.38;;;23.40;44.50;;;;;;5069097;28;20056;-38
2021/03/17 04:21:03;;;;;;;15.80;9.82;;;23.40;44.40;;;;;;5070129;28;20057;-38
2021/03/17 04:23:32;;;;;;;15.75;9.70;;;23.40;44.50;;;;;;5070158;28;20547;-38
2021/03/17 04:26:00;;;;;;;17.38;10.70;;;23.40;44.50;;;;;;5072094;28;20055;-38
2021/03/17 04:28:28;;;;;;;14.48;9.48;;;23.40;44.40;;;;;;5074934;28;20048;-38
2021/03/17 04:30:59;;;;;;;15.93;10.48;;;23.40;44.40;;;;;;5072370;28;20048;-37
2021/03/17 04:33:28;;;;;;;15.40;9.38;;;23.40;44.40;;;;;;5074901;28;20052;-38
2021/03/17 04:35:58;;;;;;;14.73;9.82;;;23.40;44.40;;;;;;5073740;28;20045;-38
2021/03/17 04:38:27;;;;;;;13.73;9.38;;;23.40;44.40;;;;;;5075968;28;20509;-38
2021/03/17 04:40:56;;;;;;;15.75;10.32;;;23.40;44.40;;;;;;5073695;28;20568;-38
2021/03/17 04:43:24;;;;;;;17.60;9.88;;;23.40;44.40;;;;;;5074984;28;20446;-37
2021/03/17 04:45:52;;;;;;;17.27;10.98;;;23.40;44.40;;;;;;5074826;28;20049;-38
2021/03/17 04:48:21;;;;;;;18.80;9.77;;;23.40;44.40;;;;;;5075026;28;20052;-38
2021/03/17 04:50:50;;;;;;;14.38;9.23;;;23.40;44.40;;;;;;5074110;28;20048;-38
2021/03/17 04:53:17;;;;;;;15.27;9.80;;;23.40;44.40;;;;;;5073683;28;20110;-39
2021/03/17 04:55:44;;;;;;;14.95;9.40;;;23.40;44.40;;;;;;5076124;28;20059;-39
2021/03/17 04:58:20;;;;;;;15.43;9.27;;;23.40;44.40;;;;;;5074419;28;20070;-38
2021/03/17 05:00:49;;;;;;;15.55;9.75;;;23.40;44.40;;;;;;5074258;28;20037;-38
2021/03/17 05:03:22;;;;;;;16.65;10.15;;;23.30;44.30;;;;;;5074592;28;20051;-38
2021/03/17 05:05:51;;;;;;;14.65;9.48;;;23.30;44.30;;;;;;5073685;28;20098;-38
2021/03/17 05:08:19;;;;;;;15.65;10.10;;;23.40;44.30;;;;;;5074214;28;20094;-39
2021/03/17 05:10:48;;;;;;;14.80;9.73;;;23.30;44.30;;;;;;5075780;28;20041;-38
2021/03/17 05:13:16;;;;;;;13.18;9.77;;;23.30;44.30;;;;;;5075393;28;20427;-38
2021/03/17 05:15:46;;;;;;;15.07;9.82;;;23.30;44.30;;;;;;5071902;28;20131;-40
2021/03/17 05:18:16;;;;;;;16.10;9.80;;;23.40;44.30;;;;;;5074672;28;20203;-38
2021/03/17 05:20:49;;;;;;;14.93;9.25;;;23.30;44.30;;;;;;5074179;28;20416;-38
2021/03/17 05:23:17;;;;;;;13.73;9.20;;;23.30;44.30;;;;;;5073061;28;20044;-38
2021/03/17 05:25:46;;;;;;;14.05;8.85;;;23.30;44.30;;;;;;5073033;28;20116;-39
2021/03/17 05:28:15;;;;;;;14.98;8.80;;;23.40;44.30;;;;;;5072900;28;20056;-39
2021/03/17 05:30:47;;;;;;;14.88;9.57;;;23.30;44.30;;;;;;5070290;28;20036;-38
2021/03/17 05:33:16;;;;;;;15.02;9.60;;;23.30;44.30;;;;;;5074015;28;20048;-38
2021/03/17 05:35:43;;;;;;;13.18;9.10;;;23.40;44.30;;;;;;5073923;28;20067;-40
2021/03/17 05:38:10;;;;;;;12.68;8.65;;;23.30;44.30;;;;;;5071820;28;20048;-38
2021/03/17 05:40:38;;;;;;;12.77;8.48;;;23.30;44.30;;;;;;5072503;28;20040;-38
2021/03/17 05:43:07;;;;;;;14.30;9.38;;;23.40;44.30;;;;;;5073791;28;20051;-38
2021/03/17 05:45:36;;;;;;;14.23;8.82;;;23.30;44.30;;;;;;5073484;28;20036;-39
2021/03/17 05:48:09;;;;;;;12.90;8.98;;;23.30;44.30;;;;;;5056972;28;20046;-39
2021/03/17 05:50:37;;;;;;;14.38;9.18;;;23.30;44.30;;;;;;5075058;28;20068;-38
2021/03/17 05:53:09;;;;;;;14.05;9.27;;;23.30;44.30;;;;;;5072898;28;20063;-39
2021/03/17 05:55:37;;;;;;;13.57;8.50;;;23.40;44.30;;;;;;5072514;28;20061;-38
2021/03/17 05:58:04;;;;;;;14.68;8.75;;;23.40;44.30;;;;;;5073148;28;20070;-39
2021/03/17 06:00:32;;;;;;;14.57;9.13;;;23.30;44.30;;;;;;5073240;28;20519;-39
2021/03/17 06:03:02;;;;;;;13.45;9.05;;;23.30;44.30;;;;;;5072059;28;20119;-39
2021/03/17 06:05:29;;;;;;;14.07;8.82;;;23.30;44.30;;;;;;5072780;28;20048;-39
2021/03/17 06:08:23;;;;;;;14.75;9.07;;;23.30;44.30;;;;;;5071997;28;20049;-38
2021/03/17 06:10:50;;;;;;;13.15;8.73;;;23.30;44.30;;;;;;5072170;28;20041;-38
2021/03/17 06:13:21;;;;;;;12.75;8.65;;;23.30;44.20;;;;;;5073308;28;20048;-39
2021/03/17 06:16:00;;;;;;;14.32;8.88;;;23.40;44.30;;;;;;5073258;28;20048;-38
2021/03/17 06:18:36;;;;;;;13.07;8.82;;;23.30;44.20;;;;;;5072171;28;20412;-39
2021/03/17 06:21:04;;;;;;;14.57;8.95;;;23.30;44.20;;;;;;5073083;28;20102;-38
2021/03/17 06:23:32;;;;;;;13.40;8.45;;;23.40;44.30;;;;;;5072657;28;20058;-38
2021/03/17 06:25:59;;;;;;;14.02;9.00;;;23.30;44.20;;;;;;5073264;28;20040;-38
2021/03/17 06:28:28;;;;;;;12.95;8.80;;;23.30;44.20;;;;;;5071801;28;20139;-38
2021/03/17 06:30:56;;;;;;;13.73;8.77;;;23.30;44.20;;;;;;5070433;28;20044;-38
2021/03/17 06:33:24;;;;;;;12.60;8.60;;;23.30;44.20;;;;;;5070317;28;20060;-38
2021/03/17 06:36:14;;;;;;;14.57;8.60;;;23.30;44.20;;;;;;5071954;28;20123;-38
2021/03/17 06:38:41;;;;;;;14.35;8.75;;;23.40;44.30;;;;;;5072775;28;20691;-39
2021/03/17 06:41:08;;;;;;;12.35;8.05;;;23.30;44.20;;;;;;5072809;28;20048;-38
2021/03/17 06:43:37;;;;;;;14.13;8.75;;;23.30;44.20;;;;;;5071245;28;20384;-38
2021/03/17 06:46:07;;;;;;;12.85;8.55;;;23.30;44.20;;;;;;5070068;28;20050;-38
2021/03/17 06:48:53;;;;;;;12.50;8.07;;;23.30;44.20;;;;;;5072149;28;20504;-38
2021/03/17 06:51:21;;;;;;;14.02;9.27;;;23.30;44.20;;;;;;5070155;28;20045;-39
2021/03/17 06:53:56;;;;;;;12.90;8.75;;;23.40;44.30;;;;;;5070716;28;20047;-38
2021/03/17 06:56:27;;;;;;;11.50;8.05;;;23.40;44.30;;;;;;5070936;28;20036;-38
2021/03/17 06:59:02;;;;;;;14.80;8.68;;;23.40;44.30;;;;;;5071437;28;20048;-39
2021/03/17 07:01:39;;;;;;;13.48;8.32;;;23.40;44.30;;;;;;5070922;28;20040;-38
2021/03/17 07:04:11;;;;;;;14.00;7.97;;;23.40;44.30;;;;;;5072605;28;20381;-38
2021/03/17 07:06:40;;;;;;;13.00;8.15;;;23.40;44.20;;;;;;5071694;28;20044;-38
2021/03/17 07:09:17;;;;;;;11.57;7.95;;;23.40;44.30;;;;;;5072474;28;20488;-38
2021/03/17 07:11:46;;;;;;;11.85;8.32;;;23.30;44.10;;;;;;5087582;28;20056;-38
2021/03/17 07:14:13;;;;;;;11.18;7.60;;;23.40;44.20;;;;;;5071172;28;20052;-38
2021/03/17 07:16:47;;;;;;;10.70;7.90;;;23.40;44.20;;;;;;5071120;28;20048;-38
2021/03/17 07:19:40;;;;;;;11.13;7.85;;;23.40;44.20;;;;;;5070880;28;20044;-39
2021/03/17 07:22:15;;;;;;;11.07;7.43;;;23.40;44.20;;;;;;5071809;28;20500;-39
2021/03/17 07:24:52;;;;;;;12.80;8.13;;;23.40;44.20;;;;;;5071060;28;20127;-38
2021/03/17 07:27:21;;;;;;;12.30;7.97;;;23.40;44.20;;;;;;5071568;28;20421;-39
2021/03/17 07:30:00;;;;;;;14.05;8.10;;;23.40;44.20;;;;;;5070311;28;20044;-38
2021/03/17 07:33:00;;;;;;;13.20;7.93;;;23.40;44.20;;;;;;5071976;28;20106;-47
2021/03/17 07:35:32;;;;;;;12.07;7.65;;;23.40;44.20;;;;;;5070741;28;20123;-47
2021/03/17 07:38:13;;;;;;;11.05;7.78;;;23.40;44.20;;;;;;5068367;28;20063;-47
2021/03/17 07:40:45;;;;;;;12.13;8.18;;;23.40;44.20;;;;;;5070138;28;20056;-47
2021/03/17 07:43:14;;;;;;;10.50;8.15;;;23.40;44.20;;;;;;5070582;28;20489;-47
2021/03/17 07:45:42;;;;;;;11.45;7.35;;;23.40;44.20;;;;;;5071535;28;20044;-47
2021/03/17 07:48:12;;;;;;;12.10;7.90;;;23.40;44.20;;;;;;5069873;28;20040;-47
2021/03/17 07:50:41;;;;;;;13.18;8.05;;;23.40;44.20;;;;;;5072418;28;20040;-46
2021/03/17 07:53:26;;;;;;;10.20;7.18;;;23.40;44.20;;;;;;5071310;28;20140;-46
2021/03/17 07:55:56;;;;;;;10.60;7.80;;;23.40;44.20;;;;;;5071407;28;20055;-46
2021/03/17 07:58:23;;;;;;;11.75;7.30;;;23.40;44.20;;;;;;5070064;28;20582;-46
2021/03/17 08:00:50;;;;;;;11.73;7.55;;;23.40;44.20;;;;;;5076480;28;20049;-46
2021/03/17 08:03:19;;;;;;;9.88;7.00;;;23.40;44.20;;;;;;5078244;28;20048;-46
2021/03/17 08:05:47;;;;;;;11.32;7.40;;;23.40;44.20;;;;;;5059692;28;20045;-46
2021/03/17 08:08:15;;;;;;;10.32;7.75;;;23.40;44.20;;;;;;5078196;28;20130;-46
2021/03/17 08:10:46;;;;;;;10.38;6.85;;;23.40;44.20;;;;;;5078224;28;20055;-47
2021/03/17 08:13:14;;;;;;;11.15;7.30;;;23.40;44.20;;;;;;5077955;28;20090;-46
2021/03/17 08:15:44;;;;;;;10.40;7.03;;;23.40;44.20;;;;;;5076912;28;20045;-46
2021/03/17 08:18:30;;;;;;;11.55;7.90;;;23.50;44.30;;;;;;5076956;28;20139;-46
2021/03/17 08:20:58;;;;;;;11.57;7.22;;;23.50;44.30;;;;;;5076653;28;20087;-47
2021/03/17 08:23:41;;;;;;;10.27;7.00;;;23.50;44.30;;;;;;5076160;28;20051;-47
2021/03/17 08:26:34;;;;;;;10.73;6.75;;;23.50;44.30;;;;;;5076419;28;20040;-47
2021/03/17 08:29:01;;;;;;;11.07;7.20;;;23.50;44.30;;;;;;5076331;28;20041;-46
2021/03/17 08:31:37;;;;;;;10.60;6.78;;;23.50;44.30;;;;;;5074954;28;20052;-46
2021/03/17 08:34:19;;;;;;;10.98;6.97;;;23.50;44.40;;;;;;5077840;28;20044;-46
2021/03/17 08:36:54;;;;;;;9.75;6.50;;;23.50;44.30;;;;;;5077666;28;20048;-46
2021/03/17 08:39:30;;;;;;;9.98;6.70;;;23.50;44.30;;;;;;5077589;28;20044;-46
2021/03/17 08:42:04;;;;;;;8.73;6.30;;;23.50;44.30;;;;;;5076342;28;20044;-46
2021/03/17 08:44:38;;;;;;;11.05;6.97;;;23.50;44.30;;;;;;5079044;28;20037;-46
2021/03/17 08:47:33;;;;;;;10.07;7.13;;;23.50;44.30;;;;;;5076189;28;20056;-47
2021/03/17 08:50:16;;;;;;;10.18;6.38;;;23.50;44.30;;;;;;5079407;28;20048;-46
2021/03/17 08:52:49;;;;;;;9.57;6.80;;;23.50;44.30;;;;;;5076194;28;20135;-46
2021/03/17 08:55:34;;;;;;;11.00;7.45;;;23.50;44.30;;;;;;5078945;28;20048;-46
2021/03/17 08:58:06;;;;;;;11.15;7.35;;;23.50;44.30;;;;;;5076555;28;20075;-46
2021/03/17 09:00:54;;;;;;;9.90;6.80;;;23.50;44.30;;;;;;5076926;28;20052;-46
2021/03/17 09:03:44;;;;;;;10.30;7.18;;;23.50;44.30;;;;;;5077239;28;20044;-47
2021/03/17 09:06:23;;;;;;;11.55;7.07;;;23.50;44.30;;;;;;5078743;28;20041;-47
2021/03/17 09:09:02;;;;;;;9.32;6.55;;;23.50;44.30;;;;;;5056204;28;20040;-46
2021/03/17 09:11:31;;;;;;;9.80;6.72;;;23.50;44.30;;;;;;5063954;28;20076;-46
2021/03/17 09:14:02;;;;;;;10.57;6.85;;;23.50;44.30;;;;;;5074115;28;20048;-47
2021/03/17 09:16:31;;;;;;;9.75;6.68;;;23.50;44.30;;;;;;5074557;28;20393;-47
2021/03/17 09:19:04;;;;;;;9.50;6.50;;;23.50;44.30;;;;;;5074068;28;20045;-47
2021/03/17 09:21:33;;;;;;;9.95;6.95;;;23.50;44.30;;;;;;5074062;28;20494;-47
2021/03/17 09:24:00;;;;;;;9.95;6.88;;;23.50;44.30;;;;;;5075401;28;20076;-46
2021/03/17 09:26:31;;;;;;;10.30;6.82;;;23.50;44.30;;;;;;5073844;28;20044;-48
2021/03/17 09:29:07;;;;;;;9.18;6.45;;;23.50;44.30;;;;;;5074143;28;20044;-47
2021/03/17 09:31:37;;;;;;;8.60;6.60;;;23.50;44.30;;;;;;5071776;28;20135;-46
2021/03/17 09:34:04;;;;;;;10.63;6.80;;;23.50;44.30;;;;;;5072297;28;20090;-47
2021/03/17 09:36:30;;;;;;;9.55;6.47;;;23.50;44.30;;;;;;5073511;28;20098;-47
2021/03/17 09:38:57;;;;;;;8.95;6.32;;;23.50;44.30;;;;;;5073101;28;20036;-47
2021/03/17 09:41:31;;;;;;;9.85;6.50;;;23.50;44.20;;;;;;5075068;28;20052;-46
2021/03/17 09:44:06;;;;;;;11.02;6.82;;;23.60;44.30;;;;;;5073281;28;20045;-47
2021/03/17 09:46:34;;;;;;;8.88;6.50;;;23.50;44.20;;;;;;5072280;28;20044;-47
2021/03/17 09:49:08;;;;;;;9.07;6.03;;;23.60;44.30;;;;;;5075312;28;20048;-46
2021/03/17 09:51:40;;;;;;;8.98;6.43;;;23.60;44.30;;;;;;5072219;28;20048;-47
2021/03/17 09:54:11;;;;;;;9.90;6.28;;;23.60;44.20;;;;;;5072414;28;20036;-47
2021/03/17 09:56:59;;;;;;;9.25;6.38;;;23.60;44.20;;;;;;5072391;28;20119;-46
2021/03/17 09:59:31;;;;;;;8.70;6.03;;;23.60;44.20;;;;;;5057020;28;20045;-47
2021/03/17 10:02:16;;;;;;;8.68;6.53;;;23.60;44.20;;;;;;5055840;28;20438;-48
2021/03/17 10:04:48;;;;;;;10.38;6.40;;;23.60;44.20;;;;;;5056858;28;20561;-46
2021/03/17 10:07:32;;;;;;;10.25;6.47;;;23.60;44.20;;;;;;5072362;28;20063;-47
2021/03/17 10:10:01;;;;;;;;;;;23.60;44.20;;;;;;5055299;28;20507;-47
2021/03/17 10:12:30;;;;;;;10.43;6.25;;;23.60;44.10;;;;;;5073224;28;19920;-47
2021/03/17 10:15:20;;;;;;;9.43;6.35;;;23.60;44.10;;;;;;5071366;28;20048;-47
2021/03/17 10:17:49;;;;;;;8.18;6.07;;;23.60;44.20;;;;;;5072479;28;20048;-48
2021/03/17 10:20:18;;;;;;;9.43;6.18;;;23.60;44.10;;;;;;5074138;28;20488;-47
2021/03/17 10:22:46;;;;;;;10.70;6.50;;;23.60;44.10;;;;;;5073860;28;20071;-47
2021/03/17 10:25:20;;;;;;;9.85;6.50;;;23.60;44.10;;;;;;5071925;28;20492;-46
2021/03/17 10:27:51;;;;;;;9.80;6.10;;;23.60;44.10;;;;;;5054514;28;20045;-47
2021/03/17 10:30:29;;;;;;;8.55;6.10;;;23.60;44.10;;;;;;5071372;28;20054;-47
2021/03/17 10:33:01;;;;;;;8.38;5.80;;;23.60;44.10;;;;;;5072525;28;20049;-47
2021/03/17 10:35:30;;;;;;;9.60;6.50;;;23.60;44.00;;;;;;5073923;28;20087;-46
2021/03/17 10:38:01;;;;;;;8.15;5.75;;;23.60;44.10;;;;;;5071450;28;20076;-47
2021/03/17 10:40:29;;;;;;;9.95;5.93;;;23.60;44.10;;;;;;5072306;28;20049;-46
2021/03/17 10:43:07;;;;;;;8.57;6.38;;;23.70;44.10;;;;;;5071207;28;20044;-47
2021/03/17 10:45:54;;;;;;;7.88;5.80;;;23.60;44.00;;;;;;5072447;28;20041;-47
2021/03/17 10:48:24;;;;;;;8.88;6.00;;;23.60;44.00;;;;;;5072260;28;20067;-47
2021/03/17 10:50:52;;;;;;;8.68;6.22;;;23.70;44.10;;;;;;5072151;28;20078;-47
2021/03/17 10:53:21;;;;;;;9.35;6.07;;;23.60;44.00;;;;;;5072681;28;20048;-48
2021/03/17 10:55:52;;;;;;;8.95;6.22;;;23.70;44.10;;;;;;5072667;28;20101;-48
2021/03/17 10:58:21;;;;;;;8.68;5.80;;;23.70;44.10;;;;;;5072332;28;20062;-48
2021/03/17 11:00:53;;;;;;;9.20;6.28;;;23.70;44.10;;;;;;5072074;28;20055;-48
2021/03/17 11:03:31;;;;;;;7.93;5.95;;;23.70;44.10;;;;;;5072187;28;20135;-47
2021/03/17 11:06:19;;;;;;;9.32;6.18;;;23.60;44.00;;;;;;5070994;28;20045;-47
2021/03/17 11:09:07;;;;;;;8.90;5.95;;;23.70;44.10;;;;;;5070669;28;20048;-47
2021/03/17 11:11:51;;;;;;;7.55;5.32;;;23.70;44.10;;;;;;5070275;28;20044;-47
2021/03/17 11:14:34;;;;;;;7.80;5.57;;;23.70;44.10;;;;;;5071223;28;20575;-46
2021/03/17 11:17:06;;;;;;;9.32;5.95;;;23.70;44.10;;;;;;5071279;28;20098;-46
2021/03/17 11:19:33;;;;;;;7.22;5.50;;;23.60;44.00;;;;;;5071767;28;20051;-47
2021/03/17 11:22:00;;;;;;;9.52;6.05;;;23.70;44.10;;;;;;5071906;28;20087;-46
2021/03/17 11:24:26;;;;;;;11.45;6.82;;;23.70;44.10;;;;;;5071867;28;20049;-47
2021/03/17 11:26:53;;;;;;;7.47;5.45;;;23.70;44.00;;;;;;5069067;28;20055;-46
2021/03/17 11:29:23;;;;;;;9.40;6.38;;;23.70;44.10;;;;;;5070642;28;20103;-47
2021/03/17 11:31:53;;;;;;;8.30;5.93;;;23.70;44.10;;;;;;5070595;28;20040;-47
2021/03/17 11:34:21;;;;;;;8.23;5.25;;;23.70;44.00;;;;;;5071762;28;20098;-47
2021/03/17 11:36:50;;;;;;;8.73;5.50;;;23.70;44.00;;;;;;5071981;28;20119;-47
2021/03/17 11:39:18;;;;;;;7.60;5.93;;;23.70;44.00;;;;;;5072278;28;20139;-47
2021/03/17 11:41:47;;;;;;;7.95;5.70;;;23.70;44.00;;;;;;5072994;28;20059;-47
2021/03/17 11:44:17;;;;;;;8.63;6.18;;;23.70;44.00;;;;;;5071005;28;20044;-47
2021/03/17 11:46:43;;;;;;;6.95;5.22;;;23.70;44.00;;;;;;5070591;28;20076;-47
2021/03/17 11:49:14;;;;;;;7.63;5.70;;;23.70;44.00;;;;;;5070521;28;20045;-47
2021/03/17 11:51:42;;;;;;;8.73;6.05;;;23.70;44.00;;;;;;5070629;28;20118;-48
2021/03/17 11:54:08;;;;;;;8.65;5.60;;;23.70;44.00;;;;;;5071705;28;20389;-48
2021/03/17 11:56:35;;;;;;;6.70;4.75;;;23.70;44.00;;;;;;5070073;28;20064;-48
2021/03/17 11:59:04;;;;;;;9.65;5.50;;;23.70;44.00;;;;;;5070368;28;20041;-47
2021/03/17 12:01:31;;;;;;;7.05;5.25;;;23.70;44.00;;;;;;5071443;28;20045;-47
2021/03/17 12:03:58;;;;;;;7.25;5.65;;;23.70;44.00;;;;;;5072926;28;20488;-48
2021/03/17 12:06:25;;;;;;;7.68;5.55;;;23.70;44.00;;;;;;5072767;28;20040;-48
2021/03/17 12:08:52;;;;;;;7.65;5.75;;;23.70;44.00;;;;;;5070406;28;20410;-47
2021/03/17 12:11:21;;;;;;;8.57;5.70;;;23.70;44.00;;;;;;5070927;28;20041;-47
2021/03/17 12:13:49;;;;;;;6.57;5.22;;;23.70;44.00;;;;;;5070721;28;20044;-47
2021/03/17 12:16:16;;;;;;;8.13;5.75;;;23.70;43.90;;;;;;5069826;28;20056;-47
2021/03/17 12:18:44;;;;;;;9.07;5.60;;;23.70;43.90;;;;;;5069879;28;20121;-47
2021/03/17 12:21:13;;;;;;;7.93;5.38;;;23.70;44.00;;;;;;5069932;28;20056;-47
2021/03/17 12:23:39;;;;;;;7.07;5.20;;;23.70;43.90;;;;;;5071188;28;20048;-39
2021/03/17 12:26:07;;;;;;;6.93;5.10;;;23.70;43.90;;;;;;5072583;28;20044;-38
2021/03/17 12:28:33;;;;;;;6.43;4.80;;;23.70;43.90;;;;;;5069753;28;20052;-39
2021/03/17 12:31:00;;;;;;;7.20;5.07;;;23.70;43.90;;;;;;5069709;28;20491;-38
2021/03/17 12:33:27;;;;;;;7.70;5.25;;;23.70;43.90;;;;;;5070424;28;20487;-38
2021/03/17 12:35:54;;;;;;;6.03;4.97;;;23.70;44.00;;;;;;5070196;28;20114;-39
2021/03/17 12:38:21;;;;;;;7.43;5.07;;;23.70;43.90;;;;;;5072911;28;20049;-38
2021/03/17 12:40:47;;;;;;;8.88;5.63;;;23.70;43.90;;;;;;5070563;28;20099;-38
2021/03/17 12:43:15;;;;;;;8.25;5.50;;;23.70;43.90;;;;;;5070549;28;20048;-38
2021/03/17 12:45:45;;;;;;;6.93;4.63;;;23.70;43.90;;;;;;5071025;28;20119;-38
2021/03/17 12:48:16;;;;;;;7.03;5.43;;;23.70;43.90;;;;;;5073763;28;20045;-39
2021/03/17 12:50:42;;;;;;;6.45;4.50;;;23.70;43.90;;;;;;5073716;28;20457;-39
2021/03/17 12:53:09;;;;;;;6.78;4.72;;;23.70;43.90;;;;;;5073273;28;20192;-38
2021/03/17 12:55:36;;;;;;;6.60;5.00;;;23.70;43.90;;;;;;5074256;28;20055;-39
2021/03/17 12:58:02;;;;;;;7.03;5.47;;;23.70;43.90;;;;;;5073698;28;20048;-41